KSAD/SAD METAR and TAF weather

Enter ICAO airport designator
Station Type Date Time Source
KSAD METAR 2019/05/19 20:51 UTC NOAA

KSAD 192051Z AUTO 20016G30KT 10SM CLR 28/M11 A2979 RMK AO2 PK WND 18030/2047 SLP049 T02781111 56022


Station Type Date Time Source
KSAD Decoded METAR 2019/05/19 20:51 UTC NOAA

SAFFORD MUNICIPAL AIRPORT, AZ, United States (KSAD) 32-51N 109-38W 962M
May 19, 2019 - 04:51 PM EDT / 2019.05.19 2051 UTC
Wind: from the SSW (200 degrees) at 18 MPH (16 KT) gusting to 35 MPH (30 KT):0
Visibility: 10 mile(s):0
Sky conditions: clear
Temperature: 82.0 F (27.8 C)
Dew Point: 12.0 F (-11.1 C)
Relative Humidity: 7%
Pressure (altimeter): 29.79 in. Hg (1008 hPa)
Pressure tendency: 0.06 inches (2.2 hPa) lower than three hours ago
ob: KSAD 192051Z AUTO 20016G30KT 10SM CLR 28/M11 A2979 RMK AO2 PK WND 18030/2047 SLP049 T02781111 56022
cycle: 21

Station Type Date Time Source
KSAD TAF UTC NOAA

Error!

Example: see airport list